Time;durP1;ratioP1;P1;durP2;ratioP2;P2;SDS_P1;SDS_P2;PMS_P1;PMS_P2;Temp;Humidity;BMP_temperature;BMP_pressure;BME280_temperature;BME280_humidity;BME280_pressure;Samples;Min_cycle;Max_cycle;Signal;HPM_P1;HPM_P2
2022/07/17 00:01:53;;;;;;;1.30;0.95;;;12.90;99.90;;;;;;4975498;28;20109;-82
2022/07/17 00:04:19;;;;;;;2.17;0.95;;;12.80;99.90;;;;;;4975589;28;20030;-82
2022/07/17 00:06:45;;;;;;;0.90;0.88;;;12.80;99.90;;;;;;4975178;28;20030;-82
2022/07/17 00:09:10;;;;;;;2.45;1.10;;;12.80;99.90;;;;;;4975338;28;20030;-82
2022/07/17 00:11:36;;;;;;;1.05;0.93;;;12.80;99.90;;;;;;4957810;28;20128;-82
2022/07/17 00:14:02;;;;;;;2.28;1.00;;;12.80;99.90;;;;;;4975288;28;20534;-82
2022/07/17 00:16:28;;;;;;;2.17;1.10;;;12.70;99.90;;;;;;4974686;28;20033;-82
2022/07/17 00:18:53;;;;;;;1.50;1.20;;;12.80;99.90;;;;;;4975234;28;20031;-82
2022/07/17 00:21:19;;;;;;;3.10;1.30;;;12.60;99.90;;;;;;4974574;28;20031;-82
2022/07/17 00:23:45;;;;;;;1.23;1.13;;;12.60;99.90;;;;;;4974923;28;20034;-82
2022/07/17 00:26:11;;;;;;;2.25;1.10;;;12.60;99.90;;;;;;4948299;28;20031;-82
2022/07/17 00:28:37;;;;;;;1.77;1.00;;;12.50;99.90;;;;;;4974115;28;20484;-82
2022/07/17 00:31:02;;;;;;;2.55;1.20;;;12.40;99.90;;;;;;4956321;28;20023;-82
2022/07/17 00:33:28;;;;;;;1.45;1.15;;;12.40;99.90;;;;;;4957652;28;20530;-82
2022/07/17 00:35:54;;;;;;;1.75;1.20;;;12.40;99.90;;;;;;4974485;28;20122;-82
2022/07/17 00:38:20;;;;;;;1.52;1.30;;;12.40;99.90;;;;;;4974504;28;20034;-82
2022/07/17 00:40:45;;;;;;;1.30;1.20;;;12.40;99.90;;;;;;4974869;28;20031;-82
2022/07/17 00:43:11;;;;;;;1.83;1.08;;;12.30;99.90;;;;;;4974872;28;20025;-82
2022/07/17 00:45:37;;;;;;;2.78;1.27;;;12.30;99.90;;;;;;4957082;28;20090;-82
2022/07/17 00:48:07;;;;;;;1.92;1.35;;;12.30;99.90;;;;;;4974567;28;20093;-82
2022/07/17 00:50:35;;;;;;;2.88;1.30;;;12.30;99.90;;;;;;4988230;23;20133;-74
2022/07/17 00:53:01;;;;;;;2.40;2.00;;;12.20;99.90;;;;;;4963825;28;20039;-74
2022/07/17 00:55:28;;;;;;;2.50;1.23;;;12.20;99.90;;;;;;4955523;28;20468;-74
2022/07/17 00:57:55;;;;;;;2.60;1.27;;;12.10;99.90;;;;;;4955973;28;20035;-74
2022/07/17 01:00:22;;;;;;;2.22;1.20;;;12.00;99.90;;;;;;4955601;28;20050;-74
2022/07/17 01:02:50;;;;;;;1.45;1.15;;;12.00;99.90;;;;;;4962774;28;20027;-74
2022/07/17 01:05:18;;;;;;;2.10;1.20;;;11.90;99.90;;;;;;4961764;28;20115;-74
2022/07/17 01:07:44;;;;;;;2.17;1.00;;;11.90;99.90;;;;;;4962775;28;20031;-74
2022/07/17 01:10:12;;;;;;;2.05;1.33;;;12.00;99.90;;;;;;4945290;28;20023;-74
2022/07/17 01:12:38;;;;;;;3.40;1.65;;;12.00;99.90;;;;;;4962964;28;20035;-74
2022/07/17 01:15:04;;;;;;;1.65;1.20;;;12.00;99.90;;;;;;4960149;28;20514;-73
2022/07/17 01:17:31;;;;;;;3.90;1.50;;;11.90;99.90;;;;;;4959739;28;20042;-74
2022/07/17 01:19:57;;;;;;;4.57;1.65;;;11.90;99.90;;;;;;4942803;28;20072;-73
2022/07/17 01:22:23;;;;;;;3.83;1.20;;;11.90;99.90;;;;;;4969189;28;20023;-73
2022/07/17 01:24:49;;;;;;;3.65;1.30;;;11.80;99.90;;;;;;4962785;28;20031;-73
2022/07/17 01:27:16;;;;;;;2.90;1.50;;;11.70;99.90;;;;;;4962714;28;20399;-74
2022/07/17 01:29:42;;;;;;;2.55;1.60;;;11.70;99.90;;;;;;4960932;28;20475;-73
2022/07/17 01:32:08;;;;;;;1.38;1.15;;;11.60;99.90;;;;;;4960191;28;20043;-74
2022/07/17 01:34:33;;;;;;;3.28;1.45;;;11.60;99.90;;;;;;4960340;28;21277;-74
2022/07/17 01:36:59;;;;;;;4.03;1.65;;;11.60;99.90;;;;;;4961303;28;20039;-73
2022/07/17 01:42:10;;;;;;;3.63;1.55;;;11.60;99.90;;;;;;4963228;28;20097;-74
2022/07/17 01:44:36;;;;;;;1.52;1.27;;;11.60;99.90;;;;;;4964292;28;20027;-74
2022/07/17 01:47:03;;;;;;;3.35;1.50;;;11.60;99.90;;;;;;4960661;28;20035;-74
2022/07/17 01:49:28;;;;;;;3.25;1.52;;;11.50;99.90;;;;;;4962459;28;20023;-74
2022/07/17 01:51:59;;;;;;;1.80;1.40;;;11.50;99.90;;;;;;4968183;28;20039;-73
2022/07/17 01:54:28;;;;;;;1.85;1.27;;;11.50;99.90;;;;;;4961617;28;20029;-73
2022/07/17 01:56:53;;;;;;;2.65;1.63;;;11.40;99.90;;;;;;4962144;28;20035;-74
2022/07/17 01:59:19;;;;;;;2.38;1.58;;;11.40;99.90;;;;;;4962010;28;20035;-74
2022/07/17 02:01:45;;;;;;;4.47;1.50;;;11.40;99.90;;;;;;4962137;28;20460;-73
2022/07/17 02:04:11;;;;;;;2.85;1.40;;;11.40;99.90;;;;;;4960260;28;20054;-73
2022/07/17 02:06:36;;;;;;;4.25;1.60;;;11.30;99.90;;;;;;4959151;28;20049;-73
2022/07/17 02:09:02;;;;;;;3.63;1.70;;;11.30;99.90;;;;;;4941687;28;20055;-74
2022/07/17 02:11:28;;;;;;;2.90;1.10;;;11.30;99.90;;;;;;4960724;28;20082;-74
2022/07/17 02:13:54;;;;;;;2.65;1.48;;;11.30;99.90;;;;;;4961912;28;20031;-73
2022/07/17 02:16:20;;;;;;;4.05;1.90;;;11.30;99.90;;;;;;4961800;28;20023;-74
2022/07/17 02:18:45;;;;;;;5.90;1.60;;;11.30;99.90;;;;;;4960663;28;20027;-74
2022/07/17 02:21:11;;;;;;;4.22;1.65;;;11.20;99.90;;;;;;4964570;28;20045;-74
2022/07/17 02:23:37;;;;;;;3.92;1.63;;;11.20;99.90;;;;;;4959172;28;20020;-74
2022/07/17 02:26:03;;;;;;;1.73;1.40;;;11.10;99.90;;;;;;4942760;28;20039;-74
2022/07/17 02:28:29;;;;;;;1.40;1.30;;;11.10;99.90;;;;;;4960810;28;20027;-74
2022/07/17 02:30:55;;;;;;;3.38;1.83;;;11.10;99.90;;;;;;4961304;28;20027;-74
2022/07/17 02:33:21;;;;;;;3.85;1.52;;;11.00;99.90;;;;;;4961345;28;20027;-74
2022/07/17 02:35:47;;;;;;;5.97;2.83;;;11.00;99.90;;;;;;4961034;28;20026;-74
2022/07/17 02:38:12;;;;;;;1.42;1.33;;;11.00;99.90;;;;;;4961057;28;20096;-74
2022/07/17 02:40:38;;;;;;;2.83;1.75;;;11.00;99.90;;;;;;4960059;28;20138;-74
2022/07/17 02:43:04;;;;;;;3.03;1.52;;;11.00;99.90;;;;;;4958620;28;20030;-74
2022/07/17 02:45:30;;;;;;;1.65;1.50;;;11.10;99.90;;;;;;4958486;28;20027;-73
2022/07/17 02:47:55;;;;;;;2.25;1.17;;;11.10;99.90;;;;;;4959510;28;20086;-74
2022/07/17 02:50:22;;;;;;;3.30;1.60;;;11.10;99.90;;;;;;4964486;28;20031;-74
2022/07/17 02:52:49;;;;;;;1.88;1.65;;;11.10;99.90;;;;;;4963914;28;20042;-74
2022/07/17 02:55:16;;;;;;;3.22;1.42;;;11.00;99.90;;;;;;4943655;28;20086;-74
2022/07/17 02:57:43;;;;;;;2.85;1.50;;;11.00;99.90;;;;;;4960573;28;20563;-74
2022/07/17 03:00:11;;;;;;;1.83;1.67;;;10.90;99.90;;;;;;4960888;28;20023;-74
2022/07/17 03:02:37;;;;;;;2.13;1.30;;;10.90;99.90;;;;;;4943908;28;20106;-73
2022/07/17 03:05:04;;;;;;;1.42;1.30;;;10.80;99.90;;;;;;4958443;28;20046;-74
2022/07/17 03:07:30;;;;;;;1.88;1.48;;;10.90;99.90;;;;;;4958344;28;20031;-74
2022/07/17 03:09:56;;;;;;;2.47;1.33;;;10.80;99.90;;;;;;4958532;28;20038;-74
2022/07/17 03:12:21;;;;;;;2.83;1.40;;;10.90;99.90;;;;;;4960244;28;20480;-74
2022/07/17 03:14:47;;;;;;;3.40;1.63;;;10.90;99.90;;;;;;4960631;28;20045;-74
2022/07/17 03:17:13;;;;;;;3.80;1.52;;;11.00;99.90;;;;;;4961054;28;20122;-74
2022/07/17 03:19:39;;;;;;;1.83;1.30;;;11.00;99.90;;;;;;4960753;28;20023;-73
2022/07/17 03:22:05;;;;;;;4.00;1.98;;;11.00;99.90;;;;;;4966965;28;20539;-74
2022/07/17 03:24:30;;;;;;;2.95;1.60;;;11.00;99.90;;;;;;4960670;28;20023;-74
2022/07/17 03:26:57;;;;;;;1.85;1.40;;;10.90;99.90;;;;;;4958875;28;20110;-74
2022/07/17 03:29:23;;;;;;;2.60;1.17;;;10.80;99.90;;;;;;4957519;28;20030;-74
2022/07/17 03:31:49;;;;;;;3.05;1.67;;;10.80;99.90;;;;;;4957840;28;20027;-74
2022/07/17 03:34:15;;;;;;;7.45;1.88;;;10.80;99.90;;;;;;4959166;28;20031;-73
2022/07/17 03:36:40;;;;;;;1.95;1.40;;;10.80;99.90;;;;;;4960291;28;20027;-73
2022/07/17 03:39:07;;;;;;;1.88;1.33;;;10.80;99.90;;;;;;4960394;28;20155;-74
2022/07/17 03:41:32;;;;;;;2.05;1.45;;;10.80;99.90;;;;;;4960678;28;20023;-73
2022/07/17 03:43:58;;;;;;;1.88;1.35;;;10.90;99.90;;;;;;4960484;28;20020;-74
2022/07/17 03:46:24;;;;;;;1.67;1.25;;;10.80;99.90;;;;;;4960357;28;20015;-74
2022/07/17 03:48:50;;;;;;;1.98;1.30;;;10.80;99.90;;;;;;4960038;28;20023;-74
2022/07/17 03:51:16;;;;;;;3.25;1.50;;;10.80;99.90;;;;;;4958234;28;20031;-74
2022/07/17 03:53:42;;;;;;;2.65;1.40;;;10.70;99.90;;;;;;4957387;28;20024;-74
2022/07/17 03:56:08;;;;;;;4.25;1.45;;;10.70;99.90;;;;;;4958695;28;20020;-74
2022/07/17 03:58:34;;;;;;;1.80;1.63;;;10.70;99.90;;;;;;4960094;28;20023;-73
2022/07/17 04:01:00;;;;;;;1.73;1.20;;;10.70;99.90;;;;;;4960391;28;20024;-74
2022/07/17 04:03:26;;;;;;;1.77;1.50;;;10.60;99.90;;;;;;4960198;28;20023;-74
2022/07/17 04:05:52;;;;;;;1.77;1.55;;;10.70;99.90;;;;;;4960273;28;20031;-74
2022/07/17 04:08:18;;;;;;;3.03;1.90;;;10.70;99.90;;;;;;4960398;28;20529;-74
2022/07/17 04:10:44;;;;;;;6.13;1.80;;;10.70;99.90;;;;;;4959795;28;20015;-75
2022/07/17 04:13:10;;;;;;;2.38;1.48;;;10.70;99.90;;;;;;4966992;28;20440;-74
2022/07/17 04:15:59;;;;;;;2.55;1.52;;;10.70;99.90;;;;;;4960138;28;20015;-74
2022/07/17 04:18:31;;;;;;;1.80;1.30;;;10.80;99.90;;;;;;4962724;28;20021;-74
2022/07/17 04:21:09;;;;;;;3.72;1.85;;;10.80;99.90;;;;;;4957314;28;20028;-74
2022/07/17 04:23:35;;;;;;;2.20;1.70;;;10.80;99.90;;;;;;4957416;28;20028;-74
2022/07/17 04:26:02;;;;;;;2.22;1.65;;;10.80;99.90;;;;;;4941838;29;20035;-74
2022/07/17 04:28:28;;;;;;;3.58;1.80;;;10.80;99.90;;;;;;4959858;28;20019;-74
2022/07/17 04:30:54;;;;;;;4.05;1.67;;;10.80;99.90;;;;;;4959683;28;20037;-74
2022/07/17 04:33:20;;;;;;;4.85;1.77;;;10.80;99.90;;;;;;4959889;28;20070;-75
2022/07/17 04:35:45;;;;;;;3.67;2.08;;;10.80;99.90;;;;;;4959999;28;20023;-73
2022/07/17 04:38:11;;;;;;;3.70;1.73;;;10.80;99.90;;;;;;4960138;28;20039;-76
2022/07/17 04:40:38;;;;;;;2.13;1.88;;;10.80;99.90;;;;;;4959526;28;20456;-73
2022/07/17 04:43:05;;;;;;;1.52;1.38;;;10.80;99.90;;;;;;4957163;28;20106;-76
2022/07/17 04:45:31;;;;;;;5.85;2.17;;;10.90;99.90;;;;;;4963104;28;20425;-74
2022/07/17 04:47:57;;;;;;;2.20;1.20;;;10.90;99.90;;;;;;4946815;28;20031;-76
2022/07/17 04:50:23;;;;;;;2.28;2.03;;;11.00;99.90;;;;;;4963449;28;20031;-73
2022/07/17 04:52:49;;;;;;;1.88;1.50;;;11.00;99.90;;;;;;4963390;28;20511;-73
2022/07/17 04:55:15;;;;;;;3.85;1.70;;;11.10;99.90;;;;;;4963307;28;20019;-73
2022/07/17 04:57:41;;;;;;;1.88;1.40;;;11.10;99.90;;;;;;4963232;28;20050;-76
2022/07/17 05:00:08;;;;;;;3.45;1.42;;;11.10;99.90;;;;;;4962814;28;20050;-75
2022/07/17 05:02:34;;;;;;;2.28;1.38;;;11.30;99.90;;;;;;4962599;28;20118;-77
2022/07/17 05:05:00;;;;;;;2.25;1.45;;;11.30;99.90;;;;;;4969151;28;20182;-76
2022/07/17 05:07:26;;;;;;;1.85;1.45;;;11.40;99.90;;;;;;4963208;28;20042;-76
2022/07/17 05:09:52;;;;;;;1.77;1.55;;;11.50;99.90;;;;;;4962791;28;20027;-76
2022/07/17 05:12:18;;;;;;;3.70;2.47;;;11.60;99.90;;;;;;4960971;28;20041;-77
2022/07/17 05:14:44;;;;;;;2.08;1.40;;;11.70;99.90;;;;;;4960381;28;20031;-76
2022/07/17 05:17:10;;;;;;;2.20;1.80;;;11.70;99.90;;;;;;4960427;28;20030;-76
2022/07/17 05:19:36;;;;;;;2.88;1.77;;;11.80;99.90;;;;;;4969268;28;20054;-75
2022/07/17 05:22:02;;;;;;;1.95;1.75;;;11.90;99.90;;;;;;4962779;28;20106;-76
2022/07/17 05:24:28;;;;;;;4.90;1.58;;;12.00;99.90;;;;;;4963260;28;20019;-76
2022/07/17 05:26:54;;;;;;;2.65;1.65;;;12.10;99.90;;;;;;4961041;28;20050;-76
2022/07/17 05:29:20;;;;;;;3.80;1.83;;;12.20;99.90;;;;;;4960514;28;20539;-76
2022/07/17 05:31:46;;;;;;;5.40;1.95;;;12.30;99.90;;;;;;4960199;28;20034;-76
2022/07/17 05:34:12;;;;;;;3.60;1.48;;;12.50;99.90;;;;;;4961457;28;20027;-76
2022/07/17 05:36:38;;;;;;;1.55;1.45;;;12.50;99.90;;;;;;4962485;28;20059;-76
2022/07/17 05:39:04;;;;;;;2.83;1.42;;;12.60;99.90;;;;;;4962662;28;20075;-77
2022/07/17 05:41:30;;;;;;;3.63;1.35;;;12.70;99.90;;;;;;4962277;28;20577;-76
2022/07/17 05:43:55;;;;;;;1.25;0.98;;;12.80;99.90;;;;;;4962283;28;20027;-76
2022/07/17 05:46:21;;;;;;;2.38;1.52;;;12.90;99.90;;;;;;4962391;28;20595;-76
2022/07/17 05:48:47;;;;;;;3.47;1.20;;;13.10;99.90;;;;;;4939411;29;20114;-76
2022/07/17 05:51:13;;;;;;;3.15;1.30;;;13.20;99.90;;;;;;4962449;28;20058;-76
2022/07/17 05:53:38;;;;;;;2.88;1.50;;;13.30;99.90;;;;;;4961894;28;20106;-75
2022/07/17 05:56:04;;;;;;;5.45;1.67;;;13.50;99.90;;;;;;4960565;28;20015;-76
2022/07/17 05:58:30;;;;;;;2.40;1.45;;;13.60;99.90;;;;;;4959326;28;20029;-74
2022/07/17 06:00:56;;;;;;;1.60;1.20;;;13.70;99.90;;;;;;4959757;28;20043;-76
2022/07/17 06:03:21;;;;;;;2.25;1.52;;;13.90;99.90;;;;;;4960853;28;20484;-73
2022/07/17 06:05:47;;;;;;;1.52;1.23;;;14.00;99.90;;;;;;4961563;28;20519;-76
2022/07/17 06:08:13;;;;;;;5.47;1.40;;;14.10;99.90;;;;;;4961543;28;20031;-76
2022/07/17 06:10:39;;;;;;;2.47;1.30;;;14.20;99.90;;;;;;4961294;28;20556;-74
2022/07/17 06:13:05;;;;;;;2.45;1.40;;;14.40;99.90;;;;;;4961835;28;20436;-76
2022/07/17 06:15:31;;;;;;;2.53;1.30;;;14.60;99.90;;;;;;4961586;28;20110;-76
2022/07/17 06:18:03;;;;;;;4.15;1.25;;;14.80;99.90;;;;;;4960911;28;20030;-76
2022/07/17 06:20:29;;;;;;;1.77;1.33;;;14.90;99.90;;;;;;4968036;28;20050;-75
2022/07/17 06:22:55;;;;;;;2.85;1.55;;;15.20;99.90;;;;;;4961441;28;20023;-76
2022/07/17 06:25:21;;;;;;;2.80;1.70;;;15.50;99.90;;;;;;4961385;28;20034;-76
2022/07/17 06:27:47;;;;;;;2.63;1.50;;;15.90;99.90;;;;;;4959156;28;20031;-76
2022/07/17 06:30:14;;;;;;;4.00;1.67;;;16.50;99.90;;;;;;4958909;28;20050;-75
2022/07/17 06:32:40;;;;;;;1.83;1.30;;;17.00;99.90;;;;;;4958518;28;20042;-76
2022/07/17 06:35:07;;;;;;;4.40;1.20;;;17.50;99.90;;;;;;4960011;28;20016;-74
2022/07/17 06:37:33;;;;;;;3.22;1.20;;;17.90;99.90;;;;;;4960883;28;20024;-73
2022/07/17 06:39:58;;;;;;;3.33;1.15;;;18.40;99.90;;;;;;4960917;28;20034;-74
2022/07/17 06:42:24;;;;;;;2.53;1.20;;;18.80;99.90;;;;;;4960909;28;20028;-77
2022/07/17 06:44:50;;;;;;;3.17;1.15;;;19.00;99.90;;;;;;4960838;28;20019;-74
2022/07/17 06:47:16;;;;;;;3.17;0.90;;;19.00;99.90;;;;;;4960873;28;20053;-76
2022/07/17 06:49:41;;;;;;;2.30;1.08;;;19.00;99.90;;;;;;4961287;28;20031;-73
2022/07/17 06:52:07;;;;;;;1.50;1.10;;;19.00;99.90;;;;;;4960994;28;20500;-76
2022/07/17 06:54:33;;;;;;;4.38;1.98;;;18.90;99.90;;;;;;4960991;28;20545;-76
2022/07/17 06:56:59;;;;;;;2.65;0.90;;;18.90;99.90;;;;;;4959684;28;20015;-77
2022/07/17 06:59:25;;;;;;;2.25;1.10;;;18.80;99.90;;;;;;4954584;28;20027;-74
2022/07/17 07:01:51;;;;;;;1.67;1.00;;;18.80;99.90;;;;;;4960660;28;20030;-76
2022/07/17 07:04:16;;;;;;;1.73;1.00;;;18.70;99.90;;;;;;4959703;28;20420;-76
2022/07/17 07:06:42;;;;;;;2.28;1.35;;;18.70;99.90;;;;;;4960674;28;20054;-74
2022/07/17 07:09:11;;;;;;;2.90;1.42;;;18.70;99.90;;;;;;4960367;28;20488;-76
2022/07/17 07:11:37;;;;;;;4.25;1.15;;;18.70;99.90;;;;;;4960081;28;20117;-76
2022/07/17 07:14:03;;;;;;;4.07;1.23;;;18.70;99.90;;;;;;4958128;28;20071;-76
2022/07/17 07:16:29;;;;;;;2.53;1.13;;;18.80;99.90;;;;;;4957908;28;20054;-76
2022/07/17 07:18:54;;;;;;;1.73;1.10;;;19.00;99.90;;;;;;4965388;28;20362;-75
2022/07/17 07:21:22;;;;;;;4.35;1.50;;;19.10;99.90;;;;;;4949844;29;20114;-76
2022/07/17 07:23:48;;;;;;;1.67;1.25;;;19.10;99.90;;;;;;4960583;28;20143;-76
2022/07/17 07:26:14;;;;;;;1.60;1.05;;;19.10;99.90;;;;;;4960868;28;20038;-76
2022/07/17 07:28:40;;;;;;;1.77;0.80;;;19.20;99.90;;;;;;4958415;28;20025;-76
2022/07/17 07:31:06;;;;;;;4.55;1.27;;;19.20;99.90;;;;;;4957983;28;20026;-77
2022/07/17 07:33:32;;;;;;;2.38;1.30;;;19.20;99.90;;;;;;4957996;28;20023;-77
2022/07/17 07:35:58;;;;;;;3.17;1.20;;;19.30;99.90;;;;;;4959820;28;20067;-76
2022/07/17 07:38:24;;;;;;;2.83;1.08;;;19.30;99.90;;;;;;4960317;28;20102;-76
2022/07/17 07:40:50;;;;;;;2.63;0.63;;;19.40;99.90;;;;;;4960274;28;20170;-76
2022/07/17 07:43:16;;;;;;;7.05;1.50;;;19.50;99.90;;;;;;4960272;28;20026;-74
2022/07/17 07:45:41;;;;;;;1.65;1.10;;;19.60;99.90;;;;;;4960102;28;20019;-76
2022/07/17 07:48:07;;;;;;;3.92;1.13;;;19.80;99.90;;;;;;4960280;28;20018;-77
2022/07/17 07:50:33;;;;;;;2.08;1.30;;;19.90;99.90;;;;;;4978392;23;20348;-75
2022/07/17 07:52:59;;;;;;;5.45;1.00;;;20.00;99.90;;;;;;4979426;28;20027;-75
2022/07/17 07:55:25;;;;;;;1.95;1.08;;;20.10;99.90;;;;;;4955656;28;20372;-75
2022/07/17 07:58:05;;;;;;;1.38;0.90;;;20.30;99.90;;;;;;4955588;28;20466;-75
2022/07/17 08:00:31;;;;;;;4.10;2.15;;;20.30;99.90;;;;;;4964976;28;20078;-75
2022/07/17 08:02:57;;;;;;;1.73;1.10;;;20.40;99.90;;;;;;4953451;28;20728;-75
2022/07/17 08:05:22;;;;;;;1.35;1.05;;;20.50;99.90;;;;;;4953398;28;20416;-75
2022/07/17 08:07:48;;;;;;;1.10;0.77;;;20.60;99.90;;;;;;4963391;28;20031;-75
2022/07/17 08:10:14;;;;;;;1.38;0.82;;;20.70;99.90;;;;;;4937472;28;20023;-75
2022/07/17 08:12:40;;;;;;;1.88;1.15;;;20.80;99.90;;;;;;4940380;28;20042;-76
2022/07/17 08:15:06;;;;;;;2.08;0.82;;;20.90;99.90;;;;;;4968481;28;20023;-75
2022/07/17 08:17:32;;;;;;;1.30;0.90;;;21.00;99.90;;;;;;4969175;28;20027;-75
2022/07/17 08:19:57;;;;;;;1.35;1.00;;;21.20;99.90;;;;;;4958926;28;20034;-75
2022/07/17 08:22:23;;;;;;;3.10;0.80;;;21.40;96.50;;;;;;4960898;28;20035;-75
2022/07/17 08:24:49;;;;;;;2.63;0.90;;;21.60;87.40;;;;;;4956694;28;20094;-75
2022/07/17 08:27:15;;;;;;;6.20;0.90;;;21.70;73.00;;;;;;4965672;28;20443;-76
2022/07/17 08:29:40;;;;;;;1.30;1.20;;;21.90;84.30;;;;;;4955789;28;20046;-76
2022/07/17 08:32:06;;;;;;;2.60;1.10;;;22.00;71.40;;;;;;4963093;28;20039;-78
2022/07/17 08:34:32;;;;;;;3.20;0.80;;;22.20;68.50;;;;;;4956942;28;20074;-76
2022/07/17 08:36:58;;;;;;;2.10;1.15;;;22.40;71.70;;;;;;4956081;28;20031;-76
2022/07/17 08:39:24;;;;;;;1.27;0.80;;;22.80;70.40;;;;;;4939336;29;20016;-77
2022/07/17 08:41:50;;;;;;;1.92;0.70;;;23.20;66.60;;;;;;4722450;28;258276;-76
2022/07/17 08:44:15;;;;;;;0.68;0.50;;;23.50;62.20;;;;;;4837029;29;20092;-76
2022/07/17 08:46:41;;;;;;;2.33;0.70;;;24.10;61.80;;;;;;4890993;29;20040;-76
2022/07/17 08:49:07;;;;;;;1.88;0.60;;;24.70;59.50;;;;;;4891853;29;20025;-76
2022/07/17 08:51:34;;;;;;;0.98;0.88;;;25.50;52.60;;;;;;4944906;23;20069;-83
2022/07/17 08:54:00;;;;;;;3.47;0.70;;;26.30;53.20;;;;;;4936667;28;20035;-86
2022/07/17 08:56:27;;;;;;;1.23;0.70;;;26.90;49.80;;;;;;4936458;29;20019;-85
2022/07/17 08:58:52;;;;;;;5.28;0.82;;;27.60;47.80;;;;;;4947256;29;20036;-85
2022/07/17 09:01:19;;;;;;;1.95;0.52;;;28.40;45.90;;;;;;4922880;29;20032;-85
2022/07/17 09:04:07;;;;;;;1.95;0.75;;;29.10;44.10;;;;;;4916965;29;20027;-86
2022/07/17 09:06:33;;;;;;;3.15;0.70;;;29.60;40.10;;;;;;4917874;29;20028;-84
2022/07/17 09:09:11;;;;;;;1.75;0.90;;;30.10;39.80;;;;;;4918022;29;20048;-83
2022/07/17 09:11:51;;;;;;;2.85;0.80;;;30.60;42.00;;;;;;4917932;29;20043;-85
2022/07/17 09:14:19;;;;;;;1.45;0.80;;;31.50;37.70;;;;;;4917626;29;20031;-84
2022/07/17 09:16:57;;;;;;;1.30;0.70;;;31.60;36.60;;;;;;4917950;29;20031;-84
2022/07/17 09:19:26;;;;;;;2.72;0.50;;;31.80;35.60;;;;;;4928342;29;20032;-84
2022/07/17 09:22:04;;;;;;;1.50;0.60;;;32.30;34.50;;;;;;4919059;29;20389;-87
2022/07/17 09:24:43;;;;;;;1.63;0.60;;;32.10;33.10;;;;;;4922292;29;20023;-84
2022/07/17 09:27:11;;;;;;;3.25;0.52;;;31.70;34.80;;;;;;4923409;29;20098;-84
2022/07/17 09:29:50;;;;;;;0.80;0.70;;;32.00;32.50;;;;;;4923842;29;20024;-81
2022/07/17 09:32:21;;;;;;;0.93;0.60;;;32.70;33.00;;;;;;4922432;29;20024;-83
2022/07/17 09:34:52;;;;;;;1.85;0.65;;;33.40;32.90;;;;;;4916856;29;20060;-82
2022/07/17 09:37:18;;;;;;;1.55;0.55;;;33.80;31.00;;;;;;4923063;29;20040;-84
2022/07/17 09:39:44;;;;;;;1.27;0.70;;;34.00;28.20;;;;;;4925119;29;20091;-82
2022/07/17 09:42:21;;;;;;;1.05;0.68;;;33.80;29.10;;;;;;4925722;29;20107;-82
2022/07/17 09:44:56;;;;;;;1.98;0.57;;;34.10;31.30;;;;;;4919805;29;20107;-83
2022/07/17 09:47:24;;;;;;;1.45;0.60;;;34.80;29.00;;;;;;4917650;29;20355;-82
2022/07/17 09:49:54;;;;;;;0.93;0.60;;;34.60;28.90;;;;;;4922011;29;20035;-83
2022/07/17 09:52:22;;;;;;;1.97;0.60;;;34.90;29.10;;;;;;4916297;29;20167;-83
2022/07/17 09:54:51;;;;;;;1.58;0.77;;;35.00;27.40;;;;;;4917060;29;20338;-83
2022/07/17 09:57:17;;;;;;;0.80;0.63;;;33.80;28.70;;;;;;4917061;29;20051;-82
2022/07/17 09:59:45;;;;;;;1.30;0.60;;;34.00;29.40;;;;;;4916827;29;20450;-85
2022/07/17 10:02:11;;;;;;;0.73;0.50;;;34.90;28.80;;;;;;4916289;29;20358;-86
2022/07/17 10:04:37;;;;;;;0.90;0.70;;;35.70;28.20;;;;;;4916612;29;20605;-83
2022/07/17 10:07:05;;;;;;;1.48;0.60;;;35.60;26.70;;;;;;4916435;29;20027;-85
2022/07/17 10:09:32;;;;;;;0.65;0.60;;;35.00;26.90;;;;;;4916618;29;20114;-84
2022/07/17 10:11:59;;;;;;;1.35;0.63;;;35.70;28.10;;;;;;4916945;29;20032;-87
2022/07/17 10:14:25;;;;;;;0.75;0.50;;;36.00;27.60;;;;;;4916597;29;20502;-86
2022/07/17 10:16:51;;;;;;;0.47;0.47;;;36.10;25.80;;;;;;4916466;29;20024;-88
2022/07/17 10:19:21;;;;;;;0.60;0.60;;;36.00;25.30;;;;;;4921821;29;20042;-87
2022/07/17 10:22:01;;;;;;;1.20;0.63;;;36.40;27.50;;;;;;4940764;23;20401;-78
2022/07/17 10:24:29;;;;;;;0.98;0.45;;;36.90;26.00;;;;;;4927583;29;20422;-79
2022/07/17 10:26:56;;;;;;;1.42;0.50;;;37.50;23.40;;;;;;4925521;29;20568;-78
2022/07/17 10:29:35;;;;;;;0.70;0.52;;;37.30;23.70;;;;;;4916280;29;20028;-78
2022/07/17 10:32:22;;;;;;;0.68;0.52;;;37.10;24.90;;;;;;4896692;29;20020;-78
2022/07/17 10:34:53;;;;;;;1.58;0.50;;;36.90;23.90;;;;;;4896517;29;20048;-81
2022/07/17 10:37:33;;;;;;;0.73;0.70;;;37.00;24.00;;;;;;4896681;29;20371;-81
2022/07/17 10:40:24;;;;;;;1.63;0.70;;;37.40;24.40;;;;;;4900798;29;20029;-78
2022/07/17 10:42:56;;;;;;;1.48;0.60;;;37.70;24.80;;;;;;4911039;29;20043;-78
2022/07/17 10:45:35;;;;;;;0.88;0.65;;;37.80;24.20;;;;;;4933085;29;20694;-79
2022/07/17 10:48:09;;;;;;;1.55;0.65;;;38.00;24.30;;;;;;4908690;29;20051;-78
2022/07/17 10:50:39;;;;;;;1.23;0.60;;;38.40;25.30;;;;;;4902174;29;20449;-79
2022/07/17 10:53:16;;;;;;;2.38;0.70;;;38.90;22.60;;;;;;4895891;29;20021;-80
2022/07/17 10:55:44;;;;;;;2.78;0.65;;;38.60;22.40;;;;;;4896921;29;20052;-80
2022/07/17 10:58:16;;;;;;;0.80;0.57;;;39.60;24.90;;;;;;4896945;29;20052;-81
2022/07/17 11:00:41;;;;;;;3.17;0.60;;;38.70;21.70;;;;;;4896297;29;20036;-80
2022/07/17 11:03:13;;;;;;;1.23;0.50;;;39.10;23.50;;;;;;4895821;29;20127;-79
2022/07/17 11:05:40;;;;;;;2.95;0.73;;;39.50;22.50;;;;;;4901000;29;20056;-79
2022/07/17 11:08:09;;;;;;;1.08;0.60;;;40.10;23.10;;;;;;4900637;29;20029;-79
2022/07/17 11:10:35;;;;;;;1.63;0.70;;;40.20;20.60;;;;;;4896222;29;20072;-79
2022/07/17 11:13:10;;;;;;;1.10;0.98;;;40.50;23.10;;;;;;4902058;29;20052;-80
2022/07/17 11:15:45;;;;;;;1.10;0.60;;;40.90;20.50;;;;;;4901525;29;20427;-81
2022/07/17 11:18:20;;;;;;;1.45;0.50;;;39.80;20.80;;;;;;4901521;29;20023;-80
2022/07/17 11:20:57;;;;;;;0.82;0.60;;;38.90;21.10;;;;;;4929818;23;20035;-85
2022/07/17 11:23:29;;;;;;;1.13;0.70;;;38.90;21.70;;;;;;4937439;28;20040;-86
2022/07/17 11:25:56;;;;;;;2.97;0.65;;;39.20;22.80;;;;;;4928597;29;20073;-86
2022/07/17 11:28:28;;;;;;;4.88;0.70;;;39.50;22.50;;;;;;4933475;29;20055;-85
2022/07/17 11:30:54;;;;;;;0.98;0.55;;;39.00;21.50;;;;;;4922790;29;20025;-83
2022/07/17 11:33:20;;;;;;;2.17;0.80;;;38.80;22.00;;;;;;4911710;29;20035;-84
2022/07/17 11:35:47;;;;;;;2.10;0.70;;;38.60;22.90;;;;;;4914713;29;20032;-83
2022/07/17 11:38:13;;;;;;;1.45;0.73;;;38.30;21.60;;;;;;4912476;29;20024;-84
2022/07/17 11:40:48;;;;;;;1.25;0.80;;;38.80;23.20;;;;;;4915041;29;20072;-81
2022/07/17 11:43:14;;;;;;;1.02;0.65;;;39.40;21.20;;;;;;4908060;29;20039;-83
2022/07/17 11:45:42;;;;;;;3.88;0.77;;;40.10;21.70;;;;;;4913371;29;20138;-82
2022/07/17 11:48:07;;;;;;;0.77;0.55;;;40.00;20.60;;;;;;4930656;29;20474;-87
2022/07/17 11:50:34;;;;;;;1.88;0.80;;;40.30;19.40;;;;;;4917350;29;20107;-90
2022/07/17 11:53:04;;;;;;;0.63;0.60;;;40.80;21.30;;;;;;4918604;29;20111;-85
2022/07/17 11:55:38;;;;;;;0.90;0.63;;;40.20;20.20;;;;;;4918249;29;20055;-82
2022/07/17 11:58:05;;;;;;;0.75;0.60;;;39.90;20.70;;;;;;4918207;29;20055;-83
2022/07/17 12:00:31;;;;;;;0.63;0.52;;;40.20;23.60;;;;;;4918009;29;20024;-83
2022/07/17 12:03:05;;;;;;;1.17;0.73;;;40.80;22.30;;;;;;4917436;29;20092;-88
2022/07/17 12:05:33;;;;;;;1.50;0.68;;;41.10;21.20;;;;;;4917750;29;20032;-86
2022/07/17 12:07:59;;;;;;;1.00;0.82;;;40.90;21.50;;;;;;4917256;29;20024;-84
2022/07/17 12:10:27;;;;;;;3.05;0.93;;;40.90;20.40;;;;;;4916406;29;20032;-82
2022/07/17 12:13:00;;;;;;;2.33;1.20;;;40.90;19.40;;;;;;4917950;29;20032;-86
2022/07/17 12:15:43;;;;;;;3.33;1.10;;;41.40;19.00;;;;;;4916833;29;20103;-85
2022/07/17 12:18:21;;;;;;;1.73;1.00;;;41.20;19.60;;;;;;4918461;29;20107;-89
2022/07/17 12:20:48;;;;;;;1.50;1.00;;;41.90;18.60;;;;;;4936339;23;20059;-87
2022/07/17 12:23:30;;;;;;;1.67;1.10;;;40.90;19.60;;;;;;4934711;29;20063;-85
2022/07/17 12:26:07;;;;;;;1.45;1.00;;;40.90;19.40;;;;;;4935270;29;20495;-83
2022/07/17 12:28:33;;;;;;;1.55;1.08;;;40.80;19.40;;;;;;4934245;29;20024;-88
2022/07/17 12:30:59;;;;;;;1.52;1.00;;;41.30;18.80;;;;;;4925704;29;20039;-87
2022/07/17 12:33:25;;;;;;;2.13;1.30;;;41.10;19.00;;;;;;4918027;29;20028;-87
2022/07/17 12:35:51;;;;;;;6.85;1.00;;;40.10;19.80;;;;;;4917022;29;20028;-89
2022/07/17 12:38:17;;;;;;;2.53;1.23;;;40.50;20.70;;;;;;4914011;29;20043;-91
2022/07/17 12:40:42;;;;;;;1.73;1.30;;;41.60;19.70;;;;;;4925995;29;20123;-87
2022/07/17 12:43:09;;;;;;;1.65;1.05;;;41.50;19.10;;;;;;4908069;29;20560;-84
2022/07/17 12:45:35;;;;;;;1.45;1.10;;;41.80;19.20;;;;;;4914918;29;20021;-82
2022/07/17 12:48:01;;;;;;;1.98;1.10;;;41.20;18.40;;;;;;4910844;29;20055;-85
2022/07/17 12:50:27;;;;;;;1.55;1.10;;;41.40;19.60;;;;;;4923968;29;20564;-85
2022/07/17 12:52:53;;;;;;;6.40;0.90;;;39.90;19.40;;;;;;4915844;29;20028;-81